createdAt,value
2018-09-12T00:01:36.979Z,56.20
2018-09-12T00:04:05.804Z,56.30
2018-09-12T00:06:34.357Z,56.20
2018-09-12T00:09:02.809Z,56.40
2018-09-12T00:11:31.195Z,56.40
2018-09-12T00:13:59.578Z,56.60
2018-09-12T00:16:28.309Z,56.40
2018-09-12T00:18:56.687Z,56.30
2018-09-12T00:21:25.087Z,56.40
2018-09-12T00:23:53.553Z,56.60
2018-09-12T00:26:21.910Z,56.50
2018-09-12T00:28:50.264Z,56.80
2018-09-12T00:31:18.632Z,57.00
2018-09-12T00:33:47.207Z,57.00
2018-09-12T00:36:15.543Z,57.00
2018-09-12T00:38:43.979Z,57.10
2018-09-12T00:41:12.352Z,57.20
2018-09-12T00:43:40.737Z,57.40
2018-09-12T00:46:09.315Z,57.50
2018-09-12T00:48:37.707Z,57.60
2018-09-12T00:51:06.261Z,57.60
2018-09-12T00:53:34.795Z,57.60
2018-09-12T00:56:03.262Z,57.60
2018-09-12T00:58:32.138Z,58.30
2018-09-12T01:01:00.585Z,58.00
2018-09-12T01:03:28.962Z,57.90
2018-09-12T01:05:57.364Z,58.00
2018-09-12T01:08:25.749Z,58.00
2018-09-12T01:10:54.134Z,58.00
2018-09-12T01:13:22.722Z,58.10
2018-09-12T01:15:51.094Z,58.30
2018-09-12T01:18:20.475Z,58.50
2018-09-12T01:20:50.427Z,58.70
2018-09-12T01:23:19.300Z,59.00
2018-09-12T01:25:47.772Z,59.10
2018-09-12T01:28:16.147Z,59.20
2018-09-12T01:30:44.770Z,59.80
2018-09-12T01:33:13.178Z,59.20
2018-09-12T01:35:41.639Z,59.20
2018-09-12T01:38:10.541Z,59.00
2018-09-12T01:40:39.069Z,59.00
2018-09-12T01:43:08.340Z,59.40
2018-09-12T01:45:37.110Z,58.90
2018-09-12T01:48:05.849Z,59.00
2018-09-12T01:50:34.582Z,59.10
2018-09-12T01:53:03.694Z,59.10
2018-09-12T01:55:32.296Z,59.40
2018-09-12T01:58:01.700Z,59.60
2018-09-12T02:00:35.972Z,59.70
2018-09-12T02:03:05.187Z,59.70
2018-09-12T02:05:34.074Z,59.80
2018-09-12T02:08:03.244Z,59.70
2018-09-12T02:10:31.727Z,59.60
2018-09-12T02:13:00.249Z,60.30
2018-09-12T02:15:28.689Z,59.60
2018-09-12T02:17:57.277Z,59.50
2018-09-12T02:20:25.678Z,59.00
2018-09-12T02:22:54.042Z,59.50
2018-09-12T02:25:22.440Z,59.40
2018-09-12T02:27:50.897Z,59.40
2018-09-12T02:30:19.338Z,59.30
2018-09-12T02:32:47.919Z,59.40
2018-09-12T02:35:16.335Z,59.70
2018-09-12T02:37:44.695Z,59.80
2018-09-12T02:40:13.071Z,60.00
2018-09-12T02:42:42.340Z,60.10
2018-09-12T02:45:11.546Z,60.40
2018-09-12T02:47:40.797Z,60.70
2018-09-12T02:50:12.553Z,60.90
2018-09-12T02:52:41.499Z,61.20
2018-09-12T02:55:12.737Z,61.40
2018-09-12T02:57:42.175Z,62.30
2018-09-12T03:00:11.288Z,61.70
2018-09-12T03:02:39.892Z,61.70
2018-09-12T03:05:08.647Z,62.00
2018-09-12T03:07:37.864Z,62.40
2018-09-12T03:10:07.714Z,62.50
2018-09-12T03:12:36.071Z,62.60
2018-09-12T03:15:04.566Z,62.60
2018-09-12T03:17:32.921Z,62.70
2018-09-12T03:20:01.315Z,62.80
2018-09-12T03:22:29.637Z,62.90
2018-09-12T03:24:58.085Z,63.00
2018-09-12T03:27:26.469Z,63.20
2018-09-12T03:29:54.844Z,63.30
2018-09-12T03:32:23.212Z,63.40
2018-09-12T03:34:51.609Z,63.40
2018-09-12T03:37:19.954Z,63.50
2018-09-12T03:39:48.356Z,63.50
2018-09-12T03:42:16.724Z,63.70
2018-09-12T03:44:45.118Z,63.80
2018-09-12T03:47:13.627Z,63.90
2018-09-12T03:49:42.136Z,63.90
2018-09-12T03:52:10.529Z,63.90
2018-09-12T03:54:38.890Z,63.70
2018-09-12T03:57:07.395Z,63.70
2018-09-12T03:59:35.810Z,63.80
2018-09-12T04:02:04.221Z,63.70
2018-09-12T04:04:32.713Z,63.70
2018-09-12T04:07:01.055Z,63.90
2018-09-12T04:16:29.920Z,64.00
2018-09-12T04:18:58.725Z,64.80
2018-09-12T04:21:27.304Z,64.90
2018-09-12T04:23:55.753Z,64.90
2018-09-12T04:26:24.184Z,64.80
2018-09-12T04:28:52.581Z,64.90
2018-09-12T04:31:21.114Z,64.90
2018-09-12T04:33:49.534Z,64.80
2018-09-12T04:36:18.108Z,64.80
2018-09-12T04:38:46.661Z,64.80
2018-09-12T04:41:15.015Z,65.50
2018-09-12T04:43:43.467Z,64.90
2018-09-12T04:46:12.005Z,65.00
2018-09-12T04:48:40.846Z,64.90
2018-09-12T04:51:09.325Z,65.00
2018-09-12T04:53:37.808Z,65.00
2018-09-12T04:56:06.382Z,64.90
2018-09-12T04:58:35.143Z,64.80
2018-09-12T05:01:03.584Z,64.90
2018-09-12T05:03:32.770Z,64.80
2018-09-12T05:06:01.490Z,64.90
2018-09-12T05:08:30.196Z,65.00
2018-09-12T05:10:59.124Z,65.00
2018-09-12T05:13:27.617Z,64.90
2018-09-12T05:15:56.350Z,65.00
2018-09-12T05:18:24.814Z,64.90
2018-09-12T05:20:53.231Z,65.00
2018-09-12T05:23:21.625Z,64.90
2018-09-12T05:25:50.075Z,65.00
2018-09-12T05:28:18.451Z,65.00
2018-09-12T05:30:46.830Z,65.10
2018-09-12T05:33:15.184Z,65.30
2018-09-12T05:35:43.585Z,65.20
2018-09-12T05:38:11.994Z,65.40
2018-09-12T05:40:40.385Z,65.70
2018-09-12T05:43:08.935Z,65.90
2018-09-12T05:45:37.387Z,66.00
2018-09-12T05:48:06.001Z,66.10
2018-09-12T05:50:34.426Z,66.30
2018-09-12T05:53:02.929Z,66.40
2018-09-12T05:55:31.296Z,66.40
2018-09-12T05:57:59.655Z,66.50
2018-09-12T06:00:28.057Z,66.50
2018-09-12T06:02:56.906Z,66.60
2018-09-12T06:05:25.273Z,66.60
2018-09-12T06:07:53.714Z,66.60
2018-09-12T06:10:22.125Z,67.00
2018-09-12T06:12:50.568Z,67.20
2018-09-12T06:15:19.114Z,67.50
2018-09-12T06:17:47.527Z,67.70
2018-09-12T06:20:15.998Z,68.20
2018-09-12T06:22:44.427Z,68.30
2018-09-12T06:25:12.799Z,68.40
2018-09-12T06:27:41.363Z,68.50
2018-09-12T06:30:09.835Z,68.50
2018-09-12T06:32:38.355Z,68.60
2018-09-12T06:35:06.795Z,68.70
2018-09-12T06:37:35.393Z,68.70
2018-09-12T06:40:04.329Z,68.50
2018-09-12T06:42:32.774Z,68.60
2018-09-12T06:45:01.232Z,68.60
2018-09-12T06:47:29.787Z,68.70
2018-09-12T06:49:58.170Z,69.00
2018-09-12T06:52:26.637Z,69.60
2018-09-12T06:54:55.006Z,69.50
2018-09-12T06:57:23.423Z,70.20
2018-09-12T06:59:51.999Z,69.60
2018-09-12T07:03:34.937Z,69.70
2018-09-12T07:06:03.357Z,69.90
2018-09-12T07:08:31.956Z,70.20
2018-09-12T07:11:00.431Z,70.50
2018-09-12T07:13:28.857Z,70.80
2018-09-12T07:15:57.229Z,70.30
2018-09-12T07:18:25.657Z,70.60
2018-09-12T07:20:54.097Z,70.70
2018-09-12T07:23:22.424Z,70.80
2018-09-12T07:25:50.847Z,71.00
2018-09-12T07:28:19.263Z,71.00
2018-09-12T07:30:48.159Z,71.10
2018-09-12T07:33:16.504Z,71.40
2018-09-12T07:35:46.883Z,71.20
2018-09-12T07:38:15.831Z,71.20
2018-09-12T07:40:44.347Z,71.20
2018-09-12T07:43:12.691Z,71.20
2018-09-12T07:45:41.108Z,71.50
2018-09-12T07:48:09.515Z,71.80
2018-09-12T07:50:37.912Z,71.80
2018-09-12T07:53:06.341Z,71.70
2018-09-12T07:55:34.787Z,72.10
2018-09-12T07:58:03.144Z,72.40
2018-09-12T08:00:31.609Z,72.40
2018-09-12T08:03:00.316Z,72.60
2018-09-12T08:05:28.713Z,72.50
2018-09-12T08:07:57.148Z,72.60
2018-09-12T08:10:25.647Z,72.30
2018-09-12T08:12:54.048Z,72.30
2018-09-12T08:15:22.402Z,72.70
2018-09-12T08:17:50.910Z,72.90
2018-09-12T08:20:19.488Z,73.00
2018-09-12T08:22:47.968Z,72.90
2018-09-12T08:25:16.439Z,72.40
2018-09-12T08:27:45.163Z,72.10
2018-09-12T08:30:14.185Z,72.40
2018-09-12T08:32:42.589Z,72.20
2018-09-12T08:35:13.627Z,72.10
2018-09-12T08:37:41.971Z,71.90
2018-09-12T08:40:11.491Z,71.60
2018-09-12T08:42:40.002Z,71.80
2018-09-12T08:45:08.291Z,72.20
2018-09-12T08:47:36.809Z,72.30
2018-09-12T08:50:05.970Z,71.80
2018-09-12T08:52:34.450Z,71.80
2018-09-12T08:55:02.949Z,71.40
2018-09-12T08:57:31.406Z,71.00
2018-09-12T08:59:59.784Z,71.00
2018-09-12T09:02:28.584Z,71.40
2018-09-12T09:04:57.107Z,70.40
2018-09-12T09:07:25.510Z,70.80
2018-09-12T09:09:53.935Z,69.80
2018-09-12T09:12:22.471Z,69.30
2018-09-12T09:14:51.333Z,68.80
2018-09-12T09:17:21.378Z,68.30
2018-09-12T09:19:50.356Z,68.60
2018-09-12T09:22:19.166Z,67.80
2018-09-12T09:24:47.502Z,67.10
2018-09-12T09:27:15.868Z,67.70
2018-09-12T09:29:44.296Z,68.00
2018-09-12T09:32:12.677Z,67.50
2018-09-12T09:34:41.091Z,67.00
2018-09-12T09:37:09.515Z,67.50
2018-09-12T09:39:37.942Z,67.60
2018-09-12T09:42:06.334Z,67.90
2018-09-12T09:44:35.098Z,68.10
2018-09-12T09:47:03.470Z,68.60
2018-09-12T09:49:32.172Z,68.90
2018-09-12T09:52:00.538Z,69.30
2018-09-12T09:54:28.938Z,68.60
2018-09-12T09:56:57.340Z,68.70
2018-09-12T09:59:25.712Z,69.00
2018-09-12T10:01:59.480Z,68.60
2018-09-12T10:04:33.185Z,69.00
2018-09-12T10:07:06.826Z,68.70
2018-09-12T10:09:35.237Z,68.20
2018-09-12T10:12:04.260Z,68.60
2018-09-12T10:14:32.892Z,68.90
2018-09-12T10:17:01.300Z,68.90
2018-09-12T10:19:29.805Z,68.50
2018-09-12T10:21:58.196Z,68.70
2018-09-12T10:24:26.679Z,68.30
2018-09-12T10:26:54.983Z,68.60
2018-09-12T10:29:23.320Z,68.60
2018-09-12T10:31:51.706Z,68.00
2018-09-12T10:34:20.074Z,67.50
2018-09-12T10:36:48.484Z,66.80
2018-09-12T10:39:16.876Z,65.80
2018-09-12T10:41:45.273Z,65.30
2018-09-12T10:44:13.738Z,65.70
2018-09-12T10:46:42.154Z,64.50
2018-09-12T10:49:10.589Z,64.60
2018-09-12T10:51:39.002Z,64.10
2018-09-12T10:54:07.429Z,63.50
2018-09-12T10:56:35.805Z,64.10
2018-09-12T10:59:04.274Z,64.50
2018-09-12T11:01:32.562Z,65.10
2018-09-12T11:04:01.812Z,64.70
2018-09-12T11:06:30.150Z,64.40
2018-09-12T11:08:58.512Z,64.20
2018-09-12T11:11:27.461Z,64.50
2018-09-12T11:13:55.837Z,64.00
2018-09-12T11:16:39.103Z,64.00
2018-09-12T11:19:07.523Z,63.90
2018-09-12T11:21:35.919Z,64.00
2018-09-12T11:24:04.398Z,63.80
2018-09-12T11:26:32.755Z,64.10
2018-09-12T11:29:01.103Z,63.90
2018-09-12T11:31:29.858Z,64.00
2018-09-12T11:33:58.207Z,63.90
2018-09-12T11:36:26.655Z,63.70
2018-09-12T11:38:55.020Z,64.00
2018-09-12T11:41:23.568Z,64.70
2018-09-12T11:43:52.155Z,64.20
2018-09-12T11:46:20.502Z,64.30
2018-09-12T11:48:48.947Z,64.00
2018-09-12T11:51:17.308Z,63.60
2018-09-12T11:53:45.670Z,63.30
2018-09-12T11:56:14.124Z,63.00
2018-09-12T11:58:42.549Z,61.90
2018-09-12T12:01:10.899Z,62.10
2018-09-12T12:03:39.428Z,61.00
2018-09-12T12:06:08.205Z,61.00
2018-09-12T12:08:36.758Z,60.60
2018-09-12T12:11:05.363Z,60.00
2018-09-12T12:13:33.740Z,59.60
2018-09-12T12:16:02.105Z,58.30
2018-09-12T12:18:30.720Z,59.40
2018-09-12T12:20:59.058Z,59.80
2018-09-12T12:23:27.395Z,60.20
2018-09-12T12:25:55.847Z,59.30
2018-09-12T12:28:24.226Z,59.60
2018-09-12T12:30:52.547Z,59.70
2018-09-12T12:33:20.917Z,59.30
2018-09-12T12:35:49.271Z,59.70
2018-09-12T12:38:17.597Z,59.70
2018-09-12T12:40:46.115Z,59.60
2018-09-12T12:43:14.462Z,59.30
2018-09-12T12:45:42.934Z,59.50
2018-09-12T12:48:11.311Z,59.20
2018-09-12T12:50:39.794Z,59.50
2018-09-12T12:53:08.442Z,59.60
2018-09-12T12:55:36.860Z,59.60
2018-09-12T12:58:05.282Z,59.50
2018-09-12T13:00:33.618Z,59.80
2018-09-12T13:03:01.997Z,59.90
2018-09-12T13:05:30.524Z,60.30
2018-09-12T13:07:59.326Z,60.40
2018-09-12T13:10:27.742Z,60.70
2018-09-12T13:12:56.086Z,61.70
2018-09-12T13:15:24.581Z,61.10
2018-09-12T13:17:53.013Z,61.20
2018-09-12T13:20:21.771Z,61.60
2018-09-12T13:22:50.171Z,61.80
2018-09-12T13:25:18.500Z,61.70
2018-09-12T13:27:46.927Z,62.20
2018-09-12T13:30:15.239Z,61.70
2018-09-12T13:32:43.663Z,61.30
2018-09-12T13:35:12.120Z,61.60
2018-09-12T13:37:40.472Z,61.10
2018-09-12T13:40:08.823Z,61.00
2018-09-12T13:42:37.352Z,61.60
2018-09-12T13:45:06.532Z,62.20
2018-09-12T13:47:34.961Z,62.80
2018-09-12T13:50:04.023Z,63.40
2018-09-12T13:52:32.412Z,63.50
2018-09-12T13:55:01.043Z,63.80
2018-09-12T13:57:29.402Z,64.00
2018-09-12T13:59:57.795Z,64.30
2018-09-12T14:02:26.462Z,63.60
2018-09-12T14:04:54.926Z,63.60
2018-09-12T14:07:23.303Z,63.90
2018-09-12T14:09:51.690Z,64.00
2018-09-12T14:12:20.101Z,64.00
2018-09-12T14:14:48.544Z,64.30
2018-09-12T14:17:17.064Z,64.50
2018-09-12T14:19:45.612Z,64.80
2018-09-12T14:22:14.194Z,64.60
2018-09-12T14:24:42.626Z,64.90
2018-09-12T14:27:11.043Z,65.70
2018-09-12T14:29:39.480Z,65.90
2018-09-12T14:32:08.176Z,66.80
2018-09-12T14:34:36.525Z,67.20
2018-09-12T14:37:04.956Z,67.20
2018-09-12T14:39:33.378Z,67.50
2018-09-12T14:42:01.864Z,68.00
2018-09-12T14:44:30.244Z,67.70
2018-09-12T14:46:58.635Z,67.80
2018-09-12T14:49:27.063Z,67.50
2018-09-12T14:51:55.653Z,67.70
2018-09-12T14:54:24.141Z,67.80
2018-09-12T14:56:52.462Z,67.30
2018-09-12T14:59:20.891Z,67.60
2018-09-12T15:01:49.329Z,67.70
2018-09-12T15:04:17.738Z,67.20
2018-09-12T15:06:46.155Z,67.90
2018-09-12T15:09:14.605Z,67.50
2018-09-12T15:11:44.118Z,67.50
2018-09-12T15:14:12.490Z,67.60
2018-09-12T15:16:41.031Z,67.80
2018-09-12T15:19:09.550Z,67.50
2018-09-12T15:21:38.295Z,66.60
2018-09-12T15:24:07.297Z,66.00
2018-09-12T15:26:35.835Z,66.00
2018-09-12T15:29:04.926Z,65.90
2018-09-12T15:31:33.383Z,65.40
2018-09-12T15:34:01.958Z,65.40
2018-09-12T15:36:30.430Z,65.80
2018-09-12T15:38:59.190Z,66.00
2018-09-12T15:41:28.147Z,66.00
2018-09-12T15:43:56.593Z,66.00
2018-09-12T15:46:25.525Z,66.00
2018-09-12T15:48:54.114Z,65.60
2018-09-12T15:51:22.956Z,64.60
2018-09-12T15:53:51.888Z,64.90
2018-09-12T15:56:20.735Z,65.40
2018-09-12T15:58:49.344Z,65.30
2018-09-12T16:01:18.094Z,65.80
2018-09-12T16:03:47.148Z,65.80
2018-09-12T16:06:15.543Z,65.70
2018-09-12T16:08:44.405Z,65.80
2018-09-12T16:11:13.097Z,65.10
2018-09-12T16:13:41.759Z,65.40
2018-09-12T16:16:11.172Z,65.10
2018-09-12T16:18:40.067Z,65.00
2018-09-12T16:21:09.060Z,65.00
2018-09-12T16:23:37.969Z,65.00
2018-09-12T16:26:06.725Z,65.50
2018-09-12T16:28:35.342Z,65.50
2018-09-12T16:31:03.888Z,65.80
2018-09-12T16:33:32.526Z,66.10
2018-09-12T16:36:01.264Z,66.20
2018-09-12T16:38:29.772Z,66.10
2018-09-12T16:40:58.313Z,65.80
2018-09-12T16:43:27.247Z,66.30
2018-09-12T16:45:56.322Z,65.50
2018-09-12T16:48:25.983Z,65.80
2018-09-12T16:50:54.449Z,66.10
2018-09-12T16:53:23.293Z,66.20
2018-09-12T16:55:52.032Z,66.10
2018-09-12T16:58:21.023Z,66.30
2018-09-12T17:00:49.608Z,66.10
2018-09-12T17:03:18.056Z,66.60
2018-09-12T17:05:47.649Z,67.00
2018-09-12T17:08:17.443Z,66.50
2018-09-12T17:10:46.916Z,66.20
2018-09-12T17:13:16.209Z,66.20
2018-09-12T17:15:45.301Z,66.30
2018-09-12T17:18:14.584Z,66.10
2018-09-12T17:20:44.060Z,66.20
2018-09-12T17:23:13.301Z,67.00
2018-09-12T17:25:42.493Z,66.10
2018-09-12T17:28:11.371Z,66.20
2018-09-12T17:30:40.588Z,66.60
2018-09-12T17:33:09.358Z,66.90
2018-09-12T17:35:38.471Z,66.80
2018-09-12T17:38:08.208Z,67.00
2018-09-12T17:40:36.671Z,67.00
2018-09-12T17:43:05.386Z,66.90
2018-09-12T17:45:33.810Z,66.90
2018-09-12T17:48:02.355Z,66.90
2018-09-12T17:50:30.745Z,66.80
2018-09-12T17:52:59.180Z,66.90
2018-09-12T17:55:27.612Z,66.90
2018-09-12T17:57:56.413Z,67.00
2018-09-12T18:00:25.217Z,67.10
2018-09-12T18:02:53.762Z,67.20
2018-09-12T18:05:22.440Z,67.40
2018-09-12T18:07:51.190Z,67.20
2018-09-12T18:10:20.262Z,67.50
2018-09-12T18:12:49.819Z,67.40
2018-09-12T18:15:18.330Z,67.40
2018-09-12T18:17:46.889Z,67.50
2018-09-12T18:20:15.419Z,67.80
2018-09-12T18:22:44.677Z,67.70
2018-09-12T18:25:13.354Z,67.30
2018-09-12T18:27:41.808Z,66.90
2018-09-12T18:30:11.510Z,66.90
2018-09-12T18:32:39.981Z,66.80
2018-09-12T18:35:08.606Z,66.80
2018-09-12T18:37:37.291Z,66.80
2018-09-12T18:40:06.686Z,66.60
2018-09-12T18:42:36.185Z,66.60
2018-09-12T18:45:05.439Z,66.40
2018-09-12T18:47:34.234Z,66.50
2018-09-12T18:50:03.461Z,66.50
2018-09-12T18:52:32.471Z,66.60
2018-09-12T18:55:01.265Z,66.80
2018-09-12T18:57:29.879Z,66.80
2018-09-12T18:59:59.089Z,66.70
2018-09-12T19:02:28.244Z,66.70
2018-09-12T19:08:00.562Z,66.70
2018-09-12T19:10:29.201Z,66.80
2018-09-12T19:12:58.242Z,67.00
2018-09-12T19:15:27.061Z,66.60
2018-09-12T19:17:55.709Z,66.40
2018-09-12T19:20:24.850Z,66.10
2018-09-12T19:22:53.606Z,65.90
2018-09-12T19:25:22.159Z,65.70
2018-09-12T19:27:50.959Z,65.80
2018-09-12T19:30:19.942Z,65.70
2018-09-12T19:32:48.613Z,65.50
2018-09-12T19:35:17.511Z,65.50
2018-09-12T19:37:46.880Z,65.40
2018-09-12T19:40:15.993Z,64.90
2018-09-12T19:42:44.680Z,65.20
2018-09-12T19:45:13.522Z,65.00
2018-09-12T19:47:42.029Z,65.20
2018-09-12T19:50:10.692Z,65.10
2018-09-12T19:52:39.302Z,65.10
2018-09-12T19:55:08.467Z,64.90
2018-09-12T19:57:37.377Z,65.80
2018-09-12T20:00:11.061Z,65.30
2018-09-12T20:02:39.868Z,65.30
2018-09-12T20:05:09.100Z,65.10
2018-09-12T20:07:38.054Z,65.20
2018-09-12T20:10:06.805Z,65.00
2018-09-12T20:12:36.164Z,65.10
2018-09-12T20:15:05.369Z,65.30
2018-09-12T20:17:34.043Z,65.40
2018-09-12T20:20:03.462Z,65.50
2018-09-12T20:22:32.122Z,65.70
2018-09-12T20:25:00.958Z,65.70
2018-09-12T20:27:30.234Z,65.80
2018-09-12T20:29:59.194Z,65.80
2018-09-12T20:32:27.924Z,66.00
2018-09-12T20:34:56.599Z,66.00
2018-09-12T20:37:25.214Z,66.00
2018-09-12T20:39:54.098Z,65.80
2018-09-12T20:42:22.930Z,66.00
2018-09-12T20:44:51.790Z,65.80
2018-09-12T20:47:20.592Z,65.60
2018-09-12T20:49:49.728Z,65.50
2018-09-12T20:52:18.479Z,65.50
2018-09-12T20:54:47.147Z,65.50
2018-09-12T20:57:16.701Z,65.20
2018-09-12T20:59:45.461Z,65.00
2018-09-12T21:02:13.979Z,65.20
2018-09-12T21:04:42.733Z,65.00
2018-09-12T21:07:11.141Z,64.80
2018-09-12T21:09:39.863Z,64.60
2018-09-12T21:12:08.378Z,64.20
2018-09-12T21:14:36.981Z,63.50
2018-09-12T21:17:05.589Z,63.20
2018-09-12T21:19:34.190Z,63.20
2018-09-12T21:22:02.921Z,63.00
2018-09-12T21:24:31.460Z,63.20
2018-09-12T21:27:00.539Z,63.10
2018-09-12T21:29:30.053Z,63.40
2018-09-12T21:31:58.927Z,63.30
2018-09-12T21:34:27.944Z,63.40
2018-09-12T21:36:56.951Z,63.30
2018-09-12T21:39:25.639Z,63.30
2018-09-12T21:41:54.571Z,63.40
2018-09-12T21:44:23.326Z,63.60
2018-09-12T21:46:52.370Z,63.50
2018-09-12T21:49:21.827Z,63.40
2018-09-12T21:51:50.493Z,63.70
2018-09-12T21:54:19.173Z,63.60
2018-09-12T21:56:48.751Z,63.90
2018-09-12T21:59:18.622Z,64.50
2018-09-12T22:01:47.342Z,64.80
2018-09-12T22:04:17.171Z,64.80
2018-09-12T22:06:47.412Z,65.00
2018-09-12T22:09:16.127Z,64.80
2018-09-12T22:11:44.765Z,64.50
2018-09-12T22:14:13.858Z,64.40
2018-09-12T22:16:42.349Z,64.50
2018-09-12T22:19:10.837Z,64.60
2018-09-12T22:21:39.343Z,64.90
2018-09-12T22:24:07.843Z,64.90
2018-09-12T22:26:36.533Z,65.10
2018-09-12T22:29:05.032Z,65.20
2018-09-12T22:31:33.570Z,65.50
2018-09-12T22:34:02.931Z,65.60
2018-09-12T22:36:31.349Z,65.30
2018-09-12T22:38:59.886Z,65.70
2018-09-12T22:41:28.419Z,65.80
2018-09-12T22:43:56.939Z,66.70
2018-09-12T22:46:25.669Z,66.10
2018-09-12T22:48:54.712Z,66.10
2018-09-12T22:51:23.072Z,66.30
2018-09-12T22:53:51.817Z,66.60
2018-09-12T22:56:20.345Z,66.50
2018-09-12T22:58:49.042Z,66.80
2018-09-12T23:01:19.096Z,67.20
2018-09-12T23:03:47.706Z,67.10
2018-09-12T23:06:16.166Z,67.60
2018-09-12T23:08:44.750Z,68.00
2018-09-12T23:11:13.272Z,68.30
2018-09-12T23:13:42.460Z,68.30
2018-09-12T23:16:11.228Z,68.40
2018-09-12T23:18:39.657Z,68.30
2018-09-12T23:21:08.680Z,68.30
2018-09-12T23:23:37.084Z,68.10
2018-09-12T23:26:05.561Z,68.20
2018-09-12T23:28:34.083Z,68.50
2018-09-12T23:31:02.578Z,68.50
2018-09-12T23:33:31.550Z,69.00
2018-09-12T23:35:59.948Z,69.20
2018-09-12T23:38:28.428Z,69.10
2018-09-12T23:40:57.161Z,69.60
2018-09-12T23:43:26.141Z,69.90
2018-09-12T23:45:54.988Z,69.60
2018-09-12T23:48:24.053Z,69.90
2018-09-12T23:50:53.309Z,70.20
2018-09-12T23:53:21.783Z,70.30
2018-09-12T23:55:50.883Z,70.10
2018-09-12T23:58:19.333Z,70.00
